Flight Track Log - Related Links

Times and Time Zones

All times are in EST time to prevent confusion due to time zone crossing. See the KFA277 flight status page for this flight to view local times or setup timezone preferences in your user account.


Time Position Orientation Groundspeed Altitude Reporting Facility
EST Latitude Longitude Course Direction KTS MPH feet Rate Location/Type
Wed 04:55:04 AM 49.8833 -97.2333 360° North 90 104 800  Level Winnipeg Center
Wed 04:56:04 AM 49.9000 -97.2333 360° North 120 138 800 700 Level Winnipeg Center
Wed 04:57:04 AM 49.9167 -97.2833 297° West 160 184 2,200 1,500 Climbing Winnipeg Center
Wed 04:58:04 AM 49.9167 -97.3500 270° West 210 242 3,800 2,350 Climbing Winnipeg Center
Wed 04:59:04 AM 49.9333 -97.4833 281° West 250 288 6,900 2,950 Climbing Winnipeg Center
Wed 05:00:04 AM 49.9500 -97.5833 285° West 250 288 9,700 2,000 Climbing Winnipeg Center
Wed 05:01:04 AM 49.9667 -97.7000 283° West 290 334 10,900 1,400 Climbing Winnipeg Center
Wed 05:02:04 AM 49.9833 -97.8500 280° West 340 391 12,500 2,000 Climbing Winnipeg Center
Wed 05:03:04 AM 50.0000 -98.0000 280° West 340 391 14,900 1,900 Climbing Winnipeg Center
Wed 05:04:04 AM 50.0000 -98.1333 270° West 340 391 16,300 1,300 Climbing Winnipeg Center
Wed 05:05:04 AM 50.0000 -98.3000 270° West 350 403 17,500 1,500 Climbing Winnipeg Center
Wed 05:06:04 AM 50.0333 -98.4500 289° West 360 414 19,300 1,450 Climbing Winnipeg Center
Wed 05:07:04 AM 50.0333 -98.6000 270° West 370 426 20,400 1,300 Climbing Winnipeg Center
Wed 05:08:04 AM 50.0667 -98.7667 287° West 380 437 21,900 1,450 Climbing Winnipeg Center
Wed 05:09:04 AM 50.0833 -98.9500 278° West 390 449 23,300 1,250 Climbing Winnipeg Center
Wed 05:10:04 AM 50.1000 -99.1000 280° West 390 449 24,400 1,150 Climbing Winnipeg Center
Wed 05:11:04 AM 50.1000 -99.2833 270° West 390 449 25,600 1,450 Climbing Winnipeg Center
Wed 05:12:04 AM 50.1167 -99.4500 279° West 390 449 27,300 1,550 Climbing Winnipeg Center
Wed 05:13:04 AM 50.1333 -99.6000 280° West 390 449 28,700 1,450 Climbing Winnipeg Center
Wed 05:14:04 AM 50.1500 -99.7833 278° West 380 437 30,200 1,250 Climbing Winnipeg Center
Wed 05:15:04 AM 50.1667 -99.9500 279° West 380 437 31,200 850 Climbing Winnipeg Center
Wed 05:16:04 AM 50.1667 -100.1000 270° West 380 437 31,900 800 Climbing Winnipeg Center
Wed 05:17:04 AM 50.1833 -100.2667 279° West 380 437 32,800 800 Climbing Winnipeg Center
Wed 05:18:04 AM 50.2000 -100.4167 280° West 370 426 33,500 550 Climbing Winnipeg Center
Wed 05:19:04 AM 50.2000 -100.6000 270° West 370 426 33,900 250 Climbing Winnipeg Center
Wed 05:20:04 AM 50.2167 -100.7667 279° West 380 437 34,000 50 Climbing Winnipeg Center
Wed 05:21:04 AM 50.2333 -100.9167 280° West 390 449 34,000  Level Winnipeg Center
Wed 05:22:04 AM 50.2333 -101.1000 270° West 380 437 34,000  Level Winnipeg Center
Wed 05:23:04 AM 50.2500 -101.2667 279° West 380 437 34,000  Level Winnipeg Center
Wed 05:24:04 AM 50.2833 -101.4167 289° West 380 437 34,000  Level Winnipeg Center
Wed 05:25:04 AM 50.2833 -101.6000 270° West 380 437 34,000  Level Winnipeg Center
Wed 05:26:04 AM 50.3000 -101.7667 279° West 380 437 34,000  Level Winnipeg Center
Wed 05:27:04 AM 50.3000 -101.9167 270° West 380 437 34,000  Level Winnipeg Center
Wed 05:28:04 AM 50.3167 -102.0833 279° West 380 437 34,000  Level Winnipeg Center
Wed 05:29:04 AM 50.3333 -102.2333 280° West 380 437 34,000  Level Winnipeg Center
Wed 05:30:04 AM 50.3333 -102.4167 270° West 380 437 34,000  Level Winnipeg Center
Wed 05:31:04 AM 50.3500 -102.5833 279° West 390 449 34,000  Level Winnipeg Center
Wed 05:32:04 AM 50.3500 -102.7667 270° West 390 449 34,000  Level Winnipeg Center
Wed 05:33:04 AM 50.3500 -102.9167 270° West 390 449 34,000  Level Winnipeg Center
Wed 05:34:04 AM 50.3333 -103.0833 261° West 400 460 34,000  Level Winnipeg Center
Wed 05:35:04 AM 50.3500 -103.2667 278° West 400 460 34,000  Level Winnipeg Center
Wed 05:36:04 AM 50.3333 -103.4500 262° West 400 460 34,000  Level Winnipeg Center
Wed 05:37:04 AM 50.3167 -103.6333 262° West 400 460 34,000  Level Winnipeg Center
Wed 05:38:04 AM 50.3333 -103.7833 280° West 400 460 34,000  Level Winnipeg Center
Wed 05:39:04 AM 50.3167 -103.9667 262° West 400 460 34,000  Level Winnipeg Center
Wed 05:40:04 AM 50.3167 -104.1500 270° West 400 460 34,000  Level Winnipeg Center
Wed 05:41:04 AM 50.3167 -104.3167 270° West 400 460 34,000  Level Winnipeg Center
Wed 05:42:04 AM 50.3000 -104.5000 262° West 400 460 34,000  Level Winnipeg Center
Wed 05:43:04 AM 50.3000 -104.6833 270° West 400 460 34,000  Level Winnipeg Center
Wed 05:44:04 AM 50.3000 -104.8333 270° West 400 460 34,000  Level Winnipeg Center
Wed 05:45:04 AM 50.2833 -105.0167 262° West 400 460 34,000  Level Winnipeg Center
Wed 05:46:04 AM 50.2833 -105.2000 270° West 410 472 34,000  Level Winnipeg Center
Wed 05:47:04 AM 50.2833 -105.3500 270° West 410 472 34,000  Level Winnipeg Center
Wed 05:48:04 AM 50.2833 -105.5333 270° West 400 460 34,000  Level Winnipeg Center
Wed 05:49:04 AM 50.2667 -105.7167 262° West 410 472 34,000  Level Winnipeg Center
Wed 05:50:04 AM 50.2500 -105.9000 262° West 410 472 34,000  Level Winnipeg Center
Wed 05:51:04 AM 50.2500 -106.0667 270° West 410 472 34,000  Level Winnipeg Center
Wed 05:52:04 AM 50.2333 -106.2667 263° West 410 472 34,000  Level Winnipeg Center
Wed 05:53:04 AM 50.2333 -106.4167 270° West 410 472 34,000  Level Winnipeg Center
Wed 05:54:04 AM 50.2333 -106.6167 270° West 410 472 34,000  Level Winnipeg Center
Wed 05:55:04 AM 50.2167 -106.7833 261° West 410 472 34,000  Level Winnipeg Center
Wed 05:56:04 AM 50.2167 -106.9667 270° West 410 472 34,000  Level Winnipeg Center
Wed 05:57:04 AM 50.2000 -107.1500 262° West 410 472 34,000  Level Winnipeg Center
Wed 05:58:04 AM 50.2000 -107.3167 270° West 410 472 34,000  Level Winnipeg Center
Wed 05:59:04 AM 50.1833 -107.5000 262° West 410 472 34,000  Level Winnipeg Center
Wed 06:00:04 AM 50.1667 -107.6667 261° West 410 472 34,000  Level Winnipeg Center
Wed 06:01:04 AM 50.1667 -107.8667 270° West 410 472 34,000  Level Winnipeg Center
Wed 06:02:04 AM 50.1500 -108.0167 260° West 400 460 34,000  Level Winnipeg Center
Wed 06:03:04 AM 50.1333 -108.2000 262° West 410 472 34,000  Level Winnipeg Center
Wed 06:04:04 AM 50.1333 -108.3833 270° West 400 460 34,000  Level Winnipeg Center
Wed 06:05:04 AM 50.1167 -108.5500 261° West 410 472 34,000  Level Winnipeg Center
Wed 06:06:04 AM 50.1000 -108.7167 261° West 410 472 34,000  Level Winnipeg Center
Wed 06:07:04 AM 50.0833 -108.9167 263° West 410 472 34,000  Level Winnipeg Center
Wed 06:08:04 AM 50.0667 -109.0667 260° West 410 472 34,000  Level Winnipeg Center
Wed 06:09:04 AM 50.0667 -109.2833 270° West 420 483 34,000  Level Winnipeg Center
Wed 06:10:04 AM 50.0500 -109.4333 260° West 420 483 34,000  Level Winnipeg Center
Wed 06:11:04 AM 50.0500 -109.6500 270° West 420 483 34,000  Level Winnipeg Center
Wed 06:12:04 AM 50.0333 -109.8000 260° West 420 483 34,000  Level Winnipeg Center
Wed 06:13:04 AM 50.0000 -109.9833 254° West 420 483 34,000  Level Winnipeg Center
Wed 06:14:04 AM 50.0000 -110.1667 270° West 420 483 34,000  Level Winnipeg Center
Wed 06:15:04 AM 49.9833 -110.3333 261° West 410 472 34,000  Level Winnipeg Center
Wed 06:16:04 AM 49.9833 -110.5167 270° West 420 483 34,000  Level Winnipeg Center
Wed 06:17:04 AM 49.9500 -110.7000 254° West 420 483 34,000  Level Winnipeg Center
Wed 06:18:04 AM 49.9333 -110.8833 262° West 420 483 34,000  Level Winnipeg Center
Wed 06:19:04 AM 49.9333 -111.0667 270° West 420 483 34,000  Level Winnipeg Center
Wed 06:20:04 AM 49.9167 -111.2333 261° West 420 483 34,000  Level Winnipeg Center
Wed 06:21:04 AM 49.9167 -111.4167 270° West 410 472 34,000  Level Winnipeg Center
Wed 06:22:04 AM 49.9000 -111.5833 261° West 410 472 34,000  Level Winnipeg Center
Wed 06:23:04 AM 49.8833 -111.7833 263° West 410 472 34,000  Level Winnipeg Center
Wed 06:24:04 AM 49.8833 -111.9333 270° West 410 472 34,000  Level Winnipeg Center
Wed 06:25:04 AM 49.8667 -112.1167 262° West 410 472 34,000  Level Winnipeg Center
Wed 06:26:04 AM 49.8500 -112.3000 262° West 410 472 34,000 -250 Level Winnipeg Center
Wed 06:27:04 AM 49.8500 -112.4500 270° West 400 460 33,500 -1,100 Descending Winnipeg Center
Wed 06:28:04 AM 49.8333 -112.6667 263° West 420 483 31,800 -1,400 Descending Winnipeg Center
Wed 06:29:04 AM 49.8167 -112.8167 260° West 420 483 30,700 -850 Descending Winnipeg Center
Wed 06:30:04 AM 49.8000 -113.0167 263° West 420 483 30,100 -416 Descending Winnipeg Center
Wed 06:30:45 AM 49.8000 -113.0333 270° West 420 483 30,000 -59 Descending Vancouver Center
Wed 06:31:45 AM 49.7833 -113.2000 261° West 410 472 30,000  Level Vancouver Center
Wed 06:32:45 AM 49.7833 -113.3833 270° West 410 472 30,000  Level Vancouver Center
Wed 06:33:45 AM 49.7667 -113.5500 261° West 400 460 30,000  Level Vancouver Center
Wed 06:34:45 AM 49.7500 -113.7333 262° West 400 460 30,000  Level Vancouver Center
Wed 06:35:45 AM 49.7333 -113.8833 260° West 400 460 30,000  Level Vancouver Center
Wed 06:36:45 AM 49.7167 -114.0500 261° West 390 449 30,000  Level Vancouver Center
Wed 06:37:45 AM 49.7000 -114.2333 262° West 390 449 30,000  Level Vancouver Center
Wed 06:38:45 AM 49.6833 -114.3833 260° West 390 449 30,000  Level Vancouver Center
Wed 06:39:45 AM 49.6833 -114.5500 270° West 380 437 30,000  Level Vancouver Center
Wed 06:40:45 AM 49.6667 -114.7000 260° West 380 437 30,000  Level Vancouver Center
Wed 06:41:45 AM 49.6500 -114.8667 261° West 380 437 30,000  Level Vancouver Center
Wed 06:42:45 AM 49.6333 -115.0500 262° West 380 437 30,000  Level Vancouver Center
Wed 06:43:45 AM 49.6167 -115.2000 260° West 380 437 30,000  Level Vancouver Center
Wed 06:44:45 AM 49.6167 -115.3667 270° West 380 437 30,000  Level Vancouver Center
Wed 06:45:45 AM 49.5833 -115.5167 251° West 380 437 30,000  Level Vancouver Center
Wed 06:46:45 AM 49.5667 -115.6833 261° West 380 437 30,000  Level Vancouver Center
Wed 06:47:45 AM 49.5667 -115.8333 270° West 380 437 30,000  Level Vancouver Center
Wed 06:48:45 AM 49.5500 -116.0000 261° West 380 437 30,000  Level Vancouver Center
Wed 06:49:45 AM 49.5333 -116.1500 260° West 380 437 30,000  Level Vancouver Center
Wed 06:50:45 AM 49.5333 -116.3000 270° West 380 437 30,000  Level Vancouver Center
Wed 06:51:45 AM 49.5333 -116.4667 270° West 380 437 30,000  Level Vancouver Center
Wed 06:52:45 AM 49.5333 -116.6500 270° West 380 437 30,000  Level Vancouver Center
Wed 06:53:45 AM 49.5167 -116.8000 260° West 380 437 30,000  Level Vancouver Center
Wed 06:54:45 AM 49.5167 -116.9500 270° West 380 437 30,000  Level Vancouver Center
Wed 06:55:45 AM 49.5167 -117.1333 270° West 380 437 30,000  Level Vancouver Center
Wed 06:56:45 AM 49.5000 -117.2833 260° West 390 449 30,000  Level Vancouver Center
Wed 06:57:45 AM 49.5000 -117.4500 270° West 380 437 30,000  Level Vancouver Center
Wed 06:58:45 AM 49.4833 -117.6333 262° West 390 449 30,000  Level Vancouver Center
Wed 06:59:45 AM 49.4833 -117.7833 270° West 390 449 30,000  Level Vancouver Center
Wed 07:00:45 AM 49.4833 -117.9333 270° West 390 449 30,000  Level Vancouver Center
Wed 07:01:45 AM 49.4833 -118.1167 270° West 390 449 30,000  Level Vancouver Center
Wed 07:02:45 AM 49.4667 -118.3000 262° West 390 449 30,000  Level Vancouver Center
Wed 07:03:45 AM 49.4667 -118.4500 270° West 390 449 30,000  Level Vancouver Center
Wed 07:04:45 AM 49.4500 -118.6167 261° West 390 449 30,000  Level Vancouver Center
Wed 07:05:45 AM 49.4500 -118.7833 270° West 390 449 30,000  Level Vancouver Center
Wed 07:06:45 AM 49.4333 -118.9667 262° West 400 460 30,000  Level Vancouver Center
Wed 07:07:45 AM 49.4333 -119.1333 270° West 400 460 30,000  Level Vancouver Center
Wed 07:08:45 AM 49.4167 -119.3000 261° West 400 460 30,000  Level Vancouver Center
Wed 07:09:45 AM 49.4000 -119.4667 261° West 400 460 30,000  Level Vancouver Center
Wed 07:10:45 AM 49.4000 -119.6500 270° West 390 449 30,000  Level Vancouver Center
Wed 07:11:45 AM 49.4000 -119.8167 270° West 390 449 30,000  Level Vancouver Center
Wed 07:12:45 AM 49.4000 -120.0000 270° West 390 449 30,000  Level Vancouver Center
Wed 07:13:45 AM 49.3833 -120.1500 260° West 390 449 30,000  Level Vancouver Center
Wed 07:14:45 AM 49.3667 -120.3333 262° West 390 449 30,000  Level Vancouver Center
Wed 07:15:45 AM 49.3500 -120.5000 261° West 390 449 30,000  Level Vancouver Center
Wed 07:16:45 AM 49.3333 -120.6500 260° West 390 449 30,000  Level Vancouver Center
Wed 07:17:45 AM 49.3167 -120.8000 260° West 390 449 30,000  Level Vancouver Center
Wed 07:18:45 AM 49.2833 -120.9833 254° West 390 449 30,000  Level Vancouver Center
Wed 07:19:45 AM 49.2667 -121.1333 260° West 390 449 30,000 50 Level Vancouver Center
Wed 07:20:45 AM 49.2667 -121.3000 270° West 390 449 30,100 -1,200 Climbing Vancouver Center
Wed 07:21:45 AM 49.2333 -121.4500 251° West 380 437 27,600 -3,000 Descending Vancouver Center
Wed 07:22:45 AM 49.2167 -121.6333 262° West 380 437 24,100 -3,500 Descending Vancouver Center
Wed 07:23:45 AM 49.2000 -121.7833 260° West 390 449 20,600 -2,850 Descending Vancouver Center
Wed 07:24:45 AM 49.1833 -121.9333 260° West 380 437 18,400 -2,300 Descending Vancouver Center
Wed 07:25:45 AM 49.1833 -122.1167 270° West 370 426 16,000 -2,500 Descending Vancouver Center
Wed 07:26:45 AM 49.1833 -122.2500 270° West 360 414 13,400 -2,450 Descending Vancouver Center
Wed 07:27:45 AM 49.1667 -122.4000 260° West 350 403 11,100 -2,350 Descending Vancouver Center
Wed 07:28:45 AM 49.1667 -122.5167 270° West 300 345 8,700 -2,550 Descending Vancouver Center
Wed 07:29:45 AM 49.1500 -122.6333 258° West 290 334 6,000 -2,100 Descending Vancouver Center
Wed 07:30:45 AM 49.1500 -122.7500 270° West 280 322 4,500 -1,300 Descending Vancouver Center
Wed 07:31:45 AM 49.1333 -122.8500 256° West 260 299 3,400 -800 Descending Vancouver Center
Wed 07:32:45 AM 49.1500 -122.9500 284° West 240 276 2,900 -900 Descending Vancouver Center
Wed 07:33:45 AM 49.1500 -123.0333 270° West 210 242 1,600 -1,100 Descending Vancouver Center
Wed 07:34:45 AM 49.1667 -123.1167 287° West 160 184 700 -900 Descending Vancouver Center

Login

Don't have an account? Register now (free) for customized features, flight alerts, and more!